sensor_id;sensor_type;location;lat;lon;timestamp;pressure;altitude;pressure_sealevel;temperature;humidity
73024;BME280;72676;47.526;8.538;2024-03-23T00:55:33;95959.47;;;13.23;58.14
73024;BME280;72676;47.526;8.538;2024-03-23T00:57:59;95949.66;;;13.49;57.38
73024;BME280;72676;47.526;8.538;2024-03-23T01:00:24;95942.91;;;13.78;56.56
73024;BME280;72676;47.526;8.538;2024-03-23T01:02:50;95945.69;;;14.01;56.64
73024;BME280;72676;47.526;8.538;2024-03-23T01:05:15;95943.88;;;14.17;55.77
73024;BME280;72676;47.526;8.538;2024-03-23T01:07:41;95936.28;;;14.30;55.33
73024;BME280;72676;47.526;8.538;2024-03-23T01:10:07;95928.50;;;14.37;54.71
73024;BME280;72676;47.526;8.538;2024-03-23T01:12:32;95923.53;;;14.42;54.45
73024;BME280;72676;47.526;8.538;2024-03-23T01:14:58;95919.00;;;14.28;54.15
73024;BME280;72676;47.526;8.538;2024-03-23T01:17:24;95921.69;;;13.80;55.48
73024;BME280;72676;47.526;8.538;2024-03-23T01:19:49;95916.78;;;13.53;56.50
73024;BME280;72676;47.526;8.538;2024-03-23T01:22:15;95917.59;;;13.21;57.48
73024;BME280;72676;47.526;8.538;2024-03-23T01:24:40;95921.69;;;13.24;57.55
73024;BME280;72676;47.526;8.538;2024-03-23T01:27:06;95914.09;;;13.13;58.16
73024;BME280;72676;47.526;8.538;2024-03-23T01:29:31;95907.53;;;13.01;58.60
73024;BME280;72676;47.526;8.538;2024-03-23T01:31:57;95912.13;;;12.99;58.14
73024;BME280;72676;47.526;8.538;2024-03-23T01:34:22;95898.31;;;12.97;58.83
73024;BME280;72676;47.526;8.538;2024-03-23T01:36:50;95901.25;;;12.94;58.79
73024;BME280;72676;47.526;8.538;2024-03-23T01:39:16;95898.78;;;12.92;58.87
73024;BME280;72676;47.526;8.538;2024-03-23T01:41:42;95892.50;;;12.85;59.14
73024;BME280;72676;47.526;8.538;2024-03-23T01:44:08;95885.25;;;12.79;59.54
73024;BME280;72676;47.526;8.538;2024-03-23T01:46:37;95878.22;;;12.80;59.49
73024;BME280;72676;47.526;8.538;2024-03-23T01:49:04;95882.81;;;12.86;59.67
73024;BME280;72676;47.526;8.538;2024-03-23T01:51:30;95877.44;;;12.95;58.92
73024;BME280;72676;47.526;8.538;2024-03-23T01:53:56;95877.25;;;12.89;59.30
73024;BME280;72676;47.526;8.538;2024-03-23T01:56:23;95873.50;;;12.99;59.12
73024;BME280;72676;47.526;8.538;2024-03-23T01:58:48;95864.34;;;13.19;58.68
73024;BME280;72676;47.526;8.538;2024-03-23T02:01:13;95863.16;;;13.38;58.08
73024;BME280;72676;47.526;8.538;2024-03-23T02:03:39;95853.44;;;13.54;57.56
73024;BME280;72676;47.526;8.538;2024-03-23T02:06:05;95860.53;;;13.62;57.15
73024;BME280;72676;47.526;8.538;2024-03-23T02:08:33;95851.31;;;13.50;57.49
73024;BME280;72676;47.526;8.538;2024-03-23T02:10:58;95848.50;;;13.59;57.06
73024;BME280;72676;47.526;8.538;2024-03-23T02:13:24;95836.00;;;13.69;57.17
73024;BME280;72676;47.526;8.538;2024-03-23T02:15:49;95843.38;;;13.74;56.75
73024;BME280;72676;47.526;8.538;2024-03-23T02:18:15;95832.84;;;13.82;56.61
73024;BME280;72676;47.526;8.538;2024-03-23T02:20:41;95813.34;;;14.07;56.17
73024;BME280;72676;47.526;8.538;2024-03-23T02:23:13;95807.28;;;13.98;55.91
73024;BME280;72676;47.526;8.538;2024-03-23T02:25:39;95808.41;;;14.04;55.04
73024;BME280;72676;47.526;8.538;2024-03-23T02:28:04;95797.59;;;13.91;55.69
73024;BME280;72676;47.526;8.538;2024-03-23T02:30:30;95814.44;;;13.74;56.51
73024;BME280;72676;47.526;8.538;2024-03-23T02:32:55;95817.44;;;13.55;57.25
73024;BME280;72676;47.526;8.538;2024-03-23T02:35:21;95799.03;;;13.47;57.23
73024;BME280;72676;47.526;8.538;2024-03-23T02:37:47;95801.66;;;13.39;57.69
73024;BME280;72676;47.526;8.538;2024-03-23T02:40:14;95801.38;;;13.34;57.75
73024;BME280;72676;47.526;8.538;2024-03-23T02:42:40;95794.59;;;13.39;57.69
73024;BME280;72676;47.526;8.538;2024-03-23T02:45:06;95782.94;;;13.34;57.81
73024;BME280;72676;47.526;8.538;2024-03-23T02:47:32;95787.88;;;13.37;57.61
73024;BME280;72676;47.526;8.538;2024-03-23T02:49:58;95787.66;;;13.46;57.61
73024;BME280;72676;47.526;8.538;2024-03-23T02:52:23;95790.13;;;13.56;57.08
73024;BME280;72676;47.526;8.538;2024-03-23T02:54:49;95787.50;;;13.56;57.60
73024;BME280;72676;47.526;8.538;2024-03-23T02:57:14;95789.97;;;13.57;57.51
73024;BME280;72676;47.526;8.538;2024-03-23T02:59:40;95799.28;;;13.68;57.19
73024;BME280;72676;47.526;8.538;2024-03-23T03:02:06;95799.66;;;13.65;56.71
73024;BME280;72676;47.526;8.538;2024-03-23T03:04:32;95798.22;;;14.01;56.03
73024;BME280;72676;47.526;8.538;2024-03-23T03:06:57;95797.53;;;14.07;55.59
73024;BME280;72676;47.526;8.538;2024-03-23T03:09:23;95805.53;;;13.83;56.26
73024;BME280;72676;47.526;8.538;2024-03-23T03:11:48;95806.00;;;13.86;56.22
73024;BME280;72676;47.526;8.538;2024-03-23T03:14:14;95798.88;;;13.95;56.06
73024;BME280;72676;47.526;8.538;2024-03-23T03:16:39;95803.91;;;13.74;56.64
73024;BME280;72676;47.526;8.538;2024-03-23T03:19:05;95802.09;;;13.74;56.51
73024;BME280;72676;47.526;8.538;2024-03-23T03:21:32;95792.50;;;13.89;56.37
73024;BME280;72676;47.526;8.538;2024-03-23T03:23:57;95793.13;;;13.91;56.24
73024;BME280;72676;47.526;8.538;2024-03-23T03:26:23;95787.72;;;13.85;56.57
73024;BME280;72676;47.526;8.538;2024-03-23T03:28:50;95785.06;;;13.93;56.63
73024;BME280;72676;47.526;8.538;2024-03-23T03:31:15;95797.06;;;14.03;56.04
73024;BME280;72676;47.526;8.538;2024-03-23T03:33:42;95777.72;;;13.80;56.78
73024;BME280;72676;47.526;8.538;2024-03-23T03:36:07;95778.84;;;13.86;56.45
73024;BME280;72676;47.526;8.538;2024-03-23T03:38:33;95766.66;;;13.93;56.48
73024;BME280;72676;47.526;8.538;2024-03-23T03:41:01;95756.13;;;13.85;56.14
73024;BME280;72676;47.526;8.538;2024-03-23T03:43:27;95758.63;;;13.86;54.89
73024;BME280;72676;47.526;8.538;2024-03-23T03:45:53;95757.88;;;13.70;55.79
73024;BME280;72676;47.526;8.538;2024-03-23T03:48:19;95750.63;;;13.72;56.51
73024;BME280;72676;47.526;8.538;2024-03-23T03:50:44;95745.34;;;13.72;55.44
73024;BME280;72676;47.526;8.538;2024-03-23T03:53:10;95738.78;;;13.60;55.88
73024;BME280;72676;47.526;8.538;2024-03-23T03:55:35;95740.75;;;13.66;55.61
73024;BME280;72676;47.526;8.538;2024-03-23T03:58:01;95741.13;;;13.55;56.01
73024;BME280;72676;47.526;8.538;2024-03-23T04:00:26;95735.53;;;13.50;55.82
73024;BME280;72676;47.526;8.538;2024-03-23T04:02:51;95730.63;;;13.47;56.18
73024;BME280;72676;47.526;8.538;2024-03-23T04:05:17;95726.19;;;13.47;56.02
73024;BME280;72676;47.526;8.538;2024-03-23T04:07:44;95727.16;;;13.46;56.51
73024;BME280;72676;47.526;8.538;2024-03-23T04:10:10;95721.72;;;13.48;55.82
73024;BME280;72676;47.526;8.538;2024-03-23T04:12:35;95711.91;;;13.42;56.31
73024;BME280;72676;47.526;8.538;2024-03-23T04:15:01;95710.59;;;13.38;56.68
73024;BME280;72676;47.526;8.538;2024-03-23T04:17:29;95695.47;;;13.32;56.38
73024;BME280;72676;47.526;8.538;2024-03-23T04:19:57;95673.78;;;13.30;56.99
73024;BME280;72676;47.526;8.538;2024-03-23T04:22:23;95672.31;;;13.27;56.80
73024;BME280;72676;47.526;8.538;2024-03-23T04:24:53;95666.72;;;13.30;57.28
73024;BME280;72676;47.526;8.538;2024-03-23T04:27:18;95665.22;;;13.36;56.72
73024;BME280;72676;47.526;8.538;2024-03-23T04:29:48;95664.06;;;13.38;56.60
73024;BME280;72676;47.526;8.538;2024-03-23T04:32:14;95666.19;;;13.43;56.12
73024;BME280;72676;47.526;8.538;2024-03-23T04:34:40;95654.66;;;13.52;55.57
73024;BME280;72676;47.526;8.538;2024-03-23T04:37:05;95654.06;;;13.64;55.66
73024;BME280;72676;47.526;8.538;2024-03-23T04:39:31;95653.78;;;13.90;55.17
73024;BME280;72676;47.526;8.538;2024-03-23T04:41:56;95656.03;;;14.01;54.41
73024;BME280;72676;47.526;8.538;2024-03-23T04:44:22;95653.69;;;14.06;54.22
73024;BME280;72676;47.526;8.538;2024-03-23T04:46:47;95640.22;;;14.01;54.68
73024;BME280;72676;47.526;8.538;2024-03-23T04:49:13;95635.16;;;14.22;54.13
73024;BME280;72676;47.526;8.538;2024-03-23T04:51:38;95629.75;;;14.15;53.92
73024;BME280;72676;47.526;8.538;2024-03-23T04:54:05;95629.88;;;14.22;53.98
73024;BME280;72676;47.526;8.538;2024-03-23T04:56:31;95625.16;;;14.17;54.11
73024;BME280;72676;47.526;8.538;2024-03-23T04:58:57;95623.47;;;14.16;54.62
73024;BME280;72676;47.526;8.538;2024-03-23T05:01:27;95634.91;;;14.09;54.46
73024;BME280;72676;47.526;8.538;2024-03-23T05:03:53;95631.25;;;14.18;54.75
73024;BME280;72676;47.526;8.538;2024-03-23T05:06:18;95625.16;;;14.17;54.09
73024;BME280;72676;47.526;8.538;2024-03-23T05:08:44;95631.09;;;14.11;54.25
73024;BME280;72676;47.526;8.538;2024-03-23T05:11:11;95635.91;;;14.08;54.73
73024;BME280;72676;47.526;8.538;2024-03-23T05:13:36;95661.09;;;13.80;55.90
73024;BME280;72676;47.526;8.538;2024-03-23T05:16:02;95672.34;;;13.58;56.32
73024;BME280;72676;47.526;8.538;2024-03-23T05:18:29;95710.69;;;13.52;57.54
73024;BME280;72676;47.526;8.538;2024-03-23T05:20:56;95721.94;;;13.38;60.50
73024;BME280;72676;47.526;8.538;2024-03-23T05:23:23;95698.78;;;13.26;63.64
73024;BME280;72676;47.526;8.538;2024-03-23T05:25:49;95678.91;;;13.15;65.09
73024;BME280;72676;47.526;8.538;2024-03-23T05:28:14;95687.34;;;12.63;68.18
73024;BME280;72676;47.526;8.538;2024-03-23T05:30:40;95705.25;;;12.67;68.97
73024;BME280;72676;47.526;8.538;2024-03-23T05:33:05;95748.59;;;12.71;70.08
73024;BME280;72676;47.526;8.538;2024-03-23T05:35:31;95710.78;;;12.16;73.46
73024;BME280;72676;47.526;8.538;2024-03-23T05:37:57;95715.22;;;12.08;75.27
73024;BME280;72676;47.526;8.538;2024-03-23T05:40:27;95718.47;;;12.10;75.72
73024;BME280;72676;47.526;8.538;2024-03-23T05:42:53;95730.66;;;12.27;75.45
73024;BME280;72676;47.526;8.538;2024-03-23T05:45:19;95716.97;;;11.91;77.79
73024;BME280;72676;47.526;8.538;2024-03-23T05:47:45;95726.22;;;11.62;79.66
73024;BME280;72676;47.526;8.538;2024-03-23T05:50:10;95725.81;;;11.90;79.29
73024;BME280;72676;47.526;8.538;2024-03-23T05:52:38;95729.25;;;11.91;79.79
73024;BME280;72676;47.526;8.538;2024-03-23T05:55:05;95757.38;;;11.65;81.61
73024;BME280;72676;47.526;8.538;2024-03-23T05:57:30;95775.31;;;11.77;81.41
73024;BME280;72676;47.526;8.538;2024-03-23T05:59:56;95770.94;;;11.61;83.14
73024;BME280;72676;47.526;8.538;2024-03-23T06:02:22;95755.47;;;11.83;83.06
73024;BME280;72676;47.526;8.538;2024-03-23T06:04:47;95758.22;;;11.66;83.07
73024;BME280;72676;47.526;8.538;2024-03-23T06:07:13;95762.63;;;11.65;84.49
73024;BME280;72676;47.526;8.538;2024-03-23T06:09:42;95777.28;;;11.50;84.67
73024;BME280;72676;47.526;8.538;2024-03-23T06:12:08;95773.91;;;11.40;81.70
73024;BME280;72676;47.526;8.538;2024-03-23T06:14:34;95780.00;;;11.41;81.96
73024;BME280;72676;47.526;8.538;2024-03-23T06:17:00;95793.19;;;11.06;82.39
73024;BME280;72676;47.526;8.538;2024-03-23T06:19:27;95782.41;;;11.09;82.12
73024;BME280;72676;47.526;8.538;2024-03-23T06:21:53;95778.41;;;11.22;82.27
73024;BME280;72676;47.526;8.538;2024-03-23T06:24:21;95797.38;;;11.16;82.66
73024;BME280;72676;47.526;8.538;2024-03-23T06:26:47;95797.47;;;11.07;82.17
73024;BME280;72676;47.526;8.538;2024-03-23T06:29:12;95799.09;;;11.08;82.07
73024;BME280;72676;47.526;8.538;2024-03-23T06:31:38;95786.84;;;11.08;82.44
73024;BME280;72676;47.526;8.538;2024-03-23T06:34:03;95792.41;;;11.13;81.64
73024;BME280;72676;47.526;8.538;2024-03-23T06:36:28;95804.66;;;11.05;81.35
73024;BME280;72676;47.526;8.538;2024-03-23T06:38:56;95796.94;;;11.03;81.03
73024;BME280;72676;47.526;8.538;2024-03-23T06:41:21;95803.41;;;10.91;81.00
73024;BME280;72676;47.526;8.538;2024-03-23T06:43:47;95791.69;;;11.03;80.88
73024;BME280;72676;47.526;8.538;2024-03-23T06:46:12;95808.97;;;10.88;81.40
73024;BME280;72676;47.526;8.538;2024-03-23T06:48:38;95803.41;;;10.91;81.05
73024;BME280;72676;47.526;8.538;2024-03-23T06:51:04;95796.72;;;10.97;79.69
73024;BME280;72676;47.526;8.538;2024-03-23T06:53:29;95800.91;;;11.07;79.15
73024;BME280;72676;47.526;8.538;2024-03-23T06:55:55;95806.97;;;11.08;78.36
73024;BME280;72676;47.526;8.538;2024-03-23T06:58:24;95795.69;;;11.07;77.07
73024;BME280;72676;47.526;8.538;2024-03-23T07:00:50;95797.72;;;10.96;75.80
73024;BME280;72676;47.526;8.538;2024-03-23T07:03:20;95848.25;;;10.88;75.50
73024;BME280;72676;47.526;8.538;2024-03-23T07:05:46;95826.09;;;10.83;75.50
73024;BME280;72676;47.526;8.538;2024-03-23T07:08:12;95844.91;;;10.78;75.24
73024;BME280;72676;47.526;8.538;2024-03-23T07:10:41;95867.72;;;10.68;75.31
73024;BME280;72676;47.526;8.538;2024-03-23T07:13:06;95855.00;;;10.73;75.43
73024;BME280;72676;47.526;8.538;2024-03-23T07:15:33;95876.59;;;10.75;75.07
73024;BME280;72676;47.526;8.538;2024-03-23T07:17:58;95874.69;;;10.77;75.09
73024;BME280;72676;47.526;8.538;2024-03-23T07:20:24;95893.59;;;10.71;75.45
73024;BME280;72676;47.526;8.538;2024-03-23T07:22:49;95894.06;;;10.67;76.02
73024;BME280;72676;47.526;8.538;2024-03-23T07:25:15;95882.00;;;10.74;76.39
73024;BME280;72676;47.526;8.538;2024-03-23T07:27:40;95899.50;;;10.73;75.59
73024;BME280;72676;47.526;8.538;2024-03-23T07:30:06;95891.66;;;10.73;76.26
73024;BME280;72676;47.526;8.538;2024-03-23T07:32:32;95902.13;;;10.73;76.69
73024;BME280;72676;47.526;8.538;2024-03-23T07:34:57;95906.47;;;10.82;76.74
73024;BME280;72676;47.526;8.538;2024-03-23T07:37:23;95912.91;;;10.70;77.39
73024;BME280;72676;47.526;8.538;2024-03-23T07:39:48;95905.31;;;10.50;77.69
73024;BME280;72676;47.526;8.538;2024-03-23T07:42:14;95915.50;;;10.53;77.78
73024;BME280;72676;47.526;8.538;2024-03-23T07:44:40;95917.88;;;10.46;79.00
73024;BME280;72676;47.526;8.538;2024-03-23T07:47:05;95930.00;;;10.47;79.21
73024;BME280;72676;47.526;8.538;2024-03-23T07:49:31;95934.47;;;10.37;79.20
73024;BME280;72676;47.526;8.538;2024-03-23T07:51:56;95945.03;;;10.45;78.89
73024;BME280;72676;47.526;8.538;2024-03-23T07:54:22;95949.28;;;10.19;77.97
73024;BME280;72676;47.526;8.538;2024-03-23T07:56:47;95964.88;;;10.11;76.00
73024;BME280;72676;47.526;8.538;2024-03-23T07:59:13;95984.16;;;9.91;76.64
73024;BME280;72676;47.526;8.538;2024-03-23T08:01:38;96006.59;;;10.03;75.75
73024;BME280;72676;47.526;8.538;2024-03-23T08:04:05;96027.28;;;9.87;75.26
73024;BME280;72676;47.526;8.538;2024-03-23T08:06:31;95983.41;;;9.62;76.11
73024;BME280;72676;47.526;8.538;2024-03-23T08:08:57;96006.66;;;9.56;75.98
73024;BME280;72676;47.526;8.538;2024-03-23T08:11:30;95991.78;;;9.66;74.89
73024;BME280;72676;47.526;8.538;2024-03-23T08:13:56;96021.09;;;9.41;75.47
73024;BME280;72676;47.526;8.538;2024-03-23T08:16:22;96022.50;;;9.35;75.22
73024;BME280;72676;47.526;8.538;2024-03-23T08:18:47;96061.84;;;9.43;76.07
73024;BME280;72676;47.526;8.538;2024-03-23T08:21:13;96087.38;;;9.30;75.17
73024;BME280;72676;47.526;8.538;2024-03-23T08:23:39;96047.91;;;9.24;75.01
73024;BME280;72676;47.526;8.538;2024-03-23T08:26:09;96077.34;;;9.26;74.81
73024;BME280;72676;47.526;8.538;2024-03-23T08:28:35;96082.84;;;9.23;74.52
73024;BME280;72676;47.526;8.538;2024-03-23T08:31:03;96097.00;;;9.20;74.54
73024;BME280;72676;47.526;8.538;2024-03-23T08:33:29;96098.09;;;9.08;74.42
73024;BME280;72676;47.526;8.538;2024-03-23T08:36:03;96090.69;;;9.13;74.95
73024;BME280;72676;47.526;8.538;2024-03-23T08:38:29;96110.19;;;9.09;73.79
73024;BME280;72676;47.526;8.538;2024-03-23T08:41:02;96096.09;;;8.91;74.40
73024;BME280;72676;47.526;8.538;2024-03-23T08:43:28;96103.03;;;9.11;73.53
73024;BME280;72676;47.526;8.538;2024-03-23T08:46:03;96107.41;;;9.01;71.84
73024;BME280;72676;47.526;8.538;2024-03-23T08:48:29;96112.63;;;9.01;71.99
73024;BME280;72676;47.526;8.538;2024-03-23T08:51:02;96106.53;;;8.91;71.41
73024;BME280;72676;47.526;8.538;2024-03-23T08:53:29;96135.25;;;8.82;71.58
73024;BME280;72676;47.526;8.538;2024-03-23T08:55:58;96107.22;;;8.84;72.17
73024;BME280;72676;47.526;8.538;2024-03-23T08:58:25;96127.16;;;8.85;69.45
73024;BME280;72676;47.526;8.538;2024-03-23T09:00:51;96108.75;;;8.96;69.43
73024;BME280;72676;47.526;8.538;2024-03-23T09:03:17;96125.34;;;9.15;69.18
73024;BME280;72676;47.526;8.538;2024-03-23T09:05:43;96119.03;;;9.18;68.89
73024;BME280;72676;47.526;8.538;2024-03-23T09:08:08;96113.47;;;9.11;67.11
73024;BME280;72676;47.526;8.538;2024-03-23T09:10:41;96116.00;;;9.22;67.34
73024;BME280;72676;47.526;8.538;2024-03-23T09:13:07;96123.63;;;9.05;66.67
73024;BME280;72676;47.526;8.538;2024-03-23T09:15:37;96112.09;;;9.07;65.77
73024;BME280;72676;47.526;8.538;2024-03-23T09:18:03;96138.41;;;9.15;65.79
73024;BME280;72676;47.526;8.538;2024-03-23T09:20:32;96157.81;;;8.92;64.63
73024;BME280;72676;47.526;8.538;2024-03-23T09:22:58;96132.06;;;8.78;64.65
73024;BME280;72676;47.526;8.538;2024-03-23T09:25:24;96150.47;;;8.77;65.04
73024;BME280;72676;47.526;8.538;2024-03-23T09:27:50;96155.47;;;8.89;65.78
73024;BME280;72676;47.526;8.538;2024-03-23T09:30:16;96155.09;;;8.94;65.30
73024;BME280;72676;47.526;8.538;2024-03-23T09:32:43;96167.56;;;8.90;65.08
73024;BME280;72676;47.526;8.538;2024-03-23T09:35:09;96170.25;;;9.00;65.20
73024;BME280;72676;47.526;8.538;2024-03-23T09:37:35;96202.28;;;9.02;64.29
73024;BME280;72676;47.526;8.538;2024-03-23T09:40:01;96172.88;;;9.09;64.27
73024;BME280;72676;47.526;8.538;2024-03-23T09:42:27;96172.59;;;9.12;63.06
73024;BME280;72676;47.526;8.538;2024-03-23T09:44:53;96178.19;;;8.98;61.96
73024;BME280;72676;47.526;8.538;2024-03-23T09:47:19;96188.06;;;8.85;62.47
73024;BME280;72676;47.526;8.538;2024-03-23T09:49:44;96191.44;;;9.06;62.38
73024;BME280;72676;47.526;8.538;2024-03-23T09:52:10;96183.44;;;9.08;62.25
73024;BME280;72676;47.526;8.538;2024-03-23T09:54:36;96162.88;;;9.14;62.82
73024;BME280;72676;47.526;8.538;2024-03-23T09:57:01;96172.38;;;9.25;61.18
73024;BME280;72676;47.526;8.538;2024-03-23T09:59:29;96169.91;;;9.23;61.18
73024;BME280;72676;47.526;8.538;2024-03-23T10:01:54;96180.31;;;9.14;59.20
73024;BME280;72676;47.526;8.538;2024-03-23T10:04:42;96149.81;;;9.14;60.93
73024;BME280;72676;47.526;8.538;2024-03-23T10:07:12;96156.47;;;9.37;60.69
73024;BME280;72676;47.526;8.538;2024-03-23T10:09:38;96151.28;;;9.56;59.48
73024;BME280;72676;47.526;8.538;2024-03-23T10:12:08;96158.19;;;9.67;57.97
73024;BME280;72676;47.526;8.538;2024-03-23T10:14:34;96140.03;;;9.94;56.38
73024;BME280;72676;47.526;8.538;2024-03-23T10:17:20;96169.50;;;9.86;55.33
73024;BME280;72676;47.526;8.538;2024-03-23T10:19:51;96161.72;;;9.56;53.72
73024;BME280;72676;47.526;8.538;2024-03-23T10:22:21;96175.38;;;9.50;53.99
73024;BME280;72676;47.526;8.538;2024-03-23T10:24:48;96185.41;;;9.64;53.60
73024;BME280;72676;47.526;8.538;2024-03-23T10:27:20;96186.41;;;9.82;52.39
73024;BME280;72676;47.526;8.538;2024-03-23T10:29:46;96204.59;;;9.93;50.54
73024;BME280;72676;47.526;8.538;2024-03-23T10:32:13;96215.53;;;10.08;50.62
73024;BME280;72676;47.526;8.538;2024-03-23T10:34:39;96179.09;;;9.76;50.83
73024;BME280;72676;47.526;8.538;2024-03-23T10:37:06;96198.38;;;9.75;48.52
73024;BME280;72676;47.526;8.538;2024-03-23T10:42:08;96204.97;;;9.60;49.12
73024;BME280;72676;47.526;8.538;2024-03-23T10:44:36;96209.69;;;9.76;49.74
73024;BME280;72676;47.526;8.538;2024-03-23T10:47:02;96222.22;;;9.91;49.59
73024;BME280;72676;47.526;8.538;2024-03-23T10:49:32;96219.63;;;10.01;49.66
73024;BME280;72676;47.526;8.538;2024-03-23T10:51:59;96225.66;;;9.82;49.02
73024;BME280;72676;47.526;8.538;2024-03-23T10:54:25;96226.78;;;9.89;49.76
73024;BME280;72676;47.526;8.538;2024-03-23T10:56:57;96226.53;;;10.11;49.54
73024;BME280;72676;47.526;8.538;2024-03-23T10:59:25;96291.56;;;10.06;47.57
73024;BME280;72676;47.526;8.538;2024-03-23T11:01:59;96242.97;;;10.13;47.33
73024;BME280;72676;47.526;8.538;2024-03-23T11:04:37;96245.00;;;10.19;45.61
73024;BME280;72676;47.526;8.538;2024-03-23T11:09:52;96234.81;;;10.54;44.52
73024;BME280;72676;47.526;8.538;2024-03-23T11:14:47;96244.75;;;10.60;43.68
73024;BME280;72676;47.526;8.538;2024-03-23T11:17:21;96225.44;;;10.61;44.89
73024;BME280;72676;47.526;8.538;2024-03-23T11:19:53;96212.22;;;10.44;45.31
73024;BME280;72676;47.526;8.538;2024-03-23T11:22:43;96200.69;;;10.37;45.71
73024;BME280;72676;47.526;8.538;2024-03-23T11:27:37;96205.59;;;10.49;46.03
73024;BME280;72676;47.526;8.538;2024-03-23T11:30:16;96195.63;;;10.81;46.00
73024;BME280;72676;47.526;8.538;2024-03-23T11:32:46;96192.59;;;10.86;44.22
73024;BME280;72676;47.526;8.538;2024-03-23T11:35:29;96183.63;;;10.88;44.88
73024;BME280;72676;47.526;8.538;2024-03-23T11:38:10;96193.28;;;10.88;43.78
73024;BME280;72676;47.526;8.538;2024-03-23T11:43:07;96185.59;;;11.13;43.37
73024;BME280;72676;47.526;8.538;2024-03-23T11:45:44;96191.84;;;11.39;43.40
73024;BME280;72676;47.526;8.538;2024-03-23T11:48:14;96176.88;;;11.59;43.23
73024;BME280;72676;47.526;8.538;2024-03-23T11:50:45;96174.84;;;11.97;43.38
73024;BME280;72676;47.526;8.538;2024-03-23T11:53:21;96175.16;;;12.11;42.47
73024;BME280;72676;47.526;8.538;2024-03-23T11:55:52;96171.84;;;12.09;41.33
73024;BME280;72676;47.526;8.538;2024-03-23T11:58:19;96196.56;;;11.89;42.07
73024;BME280;72676;47.526;8.538;2024-03-23T12:03:17;96187.03;;;11.71;44.00
73024;BME280;72676;47.526;8.538;2024-03-23T12:05:48;96255.38;;;11.24;47.70
73024;BME280;72676;47.526;8.538;2024-03-23T12:08:18;96229.31;;;10.67;51.86
73024;BME280;72676;47.526;8.538;2024-03-23T12:10:47;96240.13;;;9.86;55.84
73024;BME280;72676;47.526;8.538;2024-03-23T12:13:15;96226.41;;;10.03;57.26
73024;BME280;72676;47.526;8.538;2024-03-23T12:15:40;96269.66;;;9.58;58.73
73024;BME280;72676;47.526;8.538;2024-03-23T12:18:07;96251.28;;;9.49;58.42
73024;BME280;72676;47.526;8.538;2024-03-23T12:20:33;96258.56;;;9.45;58.95
73024;BME280;72676;47.526;8.538;2024-03-23T12:23:09;96281.13;;;9.46;58.34
73024;BME280;72676;47.526;8.538;2024-03-23T12:25:35;96282.69;;;9.28;57.62
73024;BME280;72676;47.526;8.538;2024-03-23T12:28:01;96305.44;;;9.07;57.23
73024;BME280;72676;47.526;8.538;2024-03-23T12:30:27;96232.25;;;9.28;56.94
73024;BME280;72676;47.526;8.538;2024-03-23T12:32:52;96246.41;;;9.35;55.46
73024;BME280;72676;47.526;8.538;2024-03-23T12:35:18;96227.72;;;8.79;55.97
73024;BME280;72676;47.526;8.538;2024-03-23T12:37:44;96271.19;;;9.10;56.14
73024;BME280;72676;47.526;8.538;2024-03-23T12:40:10;96229.53;;;9.39;55.03
73024;BME280;72676;47.526;8.538;2024-03-23T12:42:35;96231.97;;;9.31;52.67
73024;BME280;72676;47.526;8.538;2024-03-23T12:45:01;96217.13;;;9.80;51.68
73024;BME280;72676;47.526;8.538;2024-03-23T12:47:27;96199.63;;;9.81;50.06
73024;BME280;72676;47.526;8.538;2024-03-23T12:49:52;96202.47;;;9.49;50.98
73024;BME280;72676;47.526;8.538;2024-03-23T12:52:18;96213.47;;;9.13;52.24
73024;BME280;72676;47.526;8.538;2024-03-23T12:54:45;96211.56;;;9.64;52.21
73024;BME280;72676;47.526;8.538;2024-03-23T12:57:10;96206.19;;;10.24;51.77
73024;BME280;72676;47.526;8.538;2024-03-23T12:59:36;96217.19;;;10.56;50.44
73024;BME280;72676;47.526;8.538;2024-03-23T13:02:01;96199.28;;;10.42;50.74
73024;BME280;72676;47.526;8.538;2024-03-23T13:04:27;96212.50;;;10.50;51.47
73024;BME280;72676;47.526;8.538;2024-03-23T13:06:52;96198.19;;;10.16;52.00
73024;BME280;72676;47.526;8.538;2024-03-23T13:09:18;96162.84;;;10.58;51.53
73024;BME280;72676;47.526;8.538;2024-03-23T13:11:43;96178.06;;;10.45;51.91
73024;BME280;72676;47.526;8.538;2024-03-23T13:14:09;96170.97;;;10.74;50.48
73024;BME280;72676;47.526;8.538;2024-03-23T13:16:35;96173.63;;;11.11;49.29
73024;BME280;72676;47.526;8.538;2024-03-23T13:19:00;96175.09;;;11.23;49.50
73024;BME280;72676;47.526;8.538;2024-03-23T13:21:26;96171.50;;;11.24;49.52
73024;BME280;72676;47.526;8.538;2024-03-23T13:23:52;96178.38;;;10.88;49.76
73024;BME280;72676;47.526;8.538;2024-03-23T13:26:17;96191.66;;;10.58;51.43
73024;BME280;72676;47.526;8.538;2024-03-23T13:28:43;96178.59;;;10.39;51.89
73024;BME280;72676;47.526;8.538;2024-03-23T13:31:09;96205.75;;;10.19;52.06
73024;BME280;72676;47.526;8.538;2024-03-23T13:33:35;96198.66;;;9.72;54.56
73024;BME280;72676;47.526;8.538;2024-03-23T13:36:01;96187.09;;;9.75;55.24
73024;BME280;72676;47.526;8.538;2024-03-23T13:38:27;96204.19;;;9.98;55.29
73024;BME280;72676;47.526;8.538;2024-03-23T13:40:57;96216.59;;;9.86;56.69
73024;BME280;72676;47.526;8.538;2024-03-23T13:43:24;96233.91;;;8.78;56.27
73024;BME280;72676;47.526;8.538;2024-03-23T13:45:56;96201.72;;;8.78;56.89
73024;BME280;72676;47.526;8.538;2024-03-23T13:48:23;96170.72;;;9.14;53.88
73024;BME280;72676;47.526;8.538;2024-03-23T13:50:59;96163.09;;;9.51;55.76
73024;BME280;72676;47.526;8.538;2024-03-23T13:53:25;96160.97;;;9.94;54.39
73024;BME280;72676;47.526;8.538;2024-03-23T13:55:51;96160.03;;;10.23;53.11
73024;BME280;72676;47.526;8.538;2024-03-23T13:58:16;96156.31;;;10.16;51.44
73024;BME280;72676;47.526;8.538;2024-03-23T14:00:42;96175.31;;;10.18;51.19
73024;BME280;72676;47.526;8.538;2024-03-23T14:03:09;96156.81;;;10.48;51.07
73024;BME280;72676;47.526;8.538;2024-03-23T14:05:34;96162.06;;;10.58;50.52
73024;BME280;72676;47.526;8.538;2024-03-23T14:08:00;96165.34;;;10.69;49.35
73024;BME280;72676;47.526;8.538;2024-03-23T14:10:26;96145.34;;;10.68;48.81